createdAt,value
2018-04-28T00:00:15.990Z,94952
2018-04-28T00:02:44.116Z,94963
2018-04-28T00:05:12.227Z,94963
2018-04-28T00:07:40.334Z,94963
2018-04-28T00:10:08.430Z,94963
2018-04-28T00:12:36.556Z,94968
2018-04-28T00:15:04.656Z,94964
2018-04-28T00:17:36.374Z,94973
2018-04-28T00:20:04.540Z,94971
2018-04-28T00:22:38.999Z,94975
2018-04-28T00:28:29.698Z,94984
2018-04-28T00:31:10.185Z,94985
2018-04-28T00:33:48.795Z,94988
2018-04-28T00:36:19.987Z,94990
2018-04-28T00:39:01.405Z,94989
2018-04-28T00:41:34.237Z,94994
2018-04-28T00:44:23.506Z,94984
2018-04-28T00:50:15.365Z,94983
2018-04-28T00:52:43.684Z,94982
2018-04-28T00:55:19.628Z,94991
2018-04-28T00:58:09.699Z,94995
2018-04-28T01:00:42.823Z,94996
2018-04-28T01:03:11.507Z,94999
2018-04-28T01:05:48.400Z,94995
2018-04-28T01:08:29.826Z,94990
2018-04-28T01:11:10.244Z,94998
2018-04-28T01:13:43.032Z,94992
2018-04-28T01:16:14.072Z,94999
2018-04-28T01:22:04.182Z,95009
2018-04-28T01:24:52.578Z,95003
2018-04-28T01:27:39.998Z,94997
2018-04-28T01:33:24.138Z,95009
2018-04-28T01:39:19.049Z,95011
2018-04-28T01:41:55.603Z,95020
2018-04-28T01:44:29.337Z,95023
2018-04-28T01:46:59.081Z,95035
2018-04-28T01:49:29.893Z,95036
2018-04-28T01:52:01.766Z,95038
2018-04-28T01:57:41.801Z,95036
2018-04-28T02:03:59.557Z,95038
2018-04-28T02:06:29.158Z,95030
2018-04-28T02:12:14.388Z,95041
2018-04-28T02:14:58.923Z,95041
2018-04-28T02:17:42.398Z,95057
2018-04-28T02:20:13.935Z,95058
2018-04-28T02:22:59.544Z,95064
2018-04-28T02:31:42.508Z,95074
2018-04-28T02:34:34.177Z,95068
2018-04-28T02:37:24.687Z,95079
2018-04-28T02:40:12.307Z,95069
2018-04-28T02:42:41.995Z,95076
2018-04-28T02:45:57.375Z,95083
2018-04-28T02:51:37.979Z,95091
2018-04-28T02:57:36.069Z,95105
2018-04-28T03:00:07.182Z,95103
2018-04-28T03:02:41.713Z,95102
2018-04-28T03:05:19.740Z,95104
2018-04-28T03:07:59.644Z,95103
2018-04-28T03:10:32.548Z,95100
2018-04-28T03:13:00.657Z,95110
2018-04-28T03:15:29.588Z,95106
2018-04-28T03:17:59.208Z,95106
2018-04-28T03:20:37.354Z,95108
2018-04-28T03:23:09.584Z,95113
2018-04-28T03:25:43.440Z,95108
2018-04-28T03:28:26.121Z,95110
2018-04-28T03:34:17.246Z,95116
2018-04-28T03:36:56.650Z,95119
2018-04-28T03:39:27.442Z,95118
2018-04-28T03:41:57.402Z,95116
2018-04-28T03:44:33.676Z,95114
2018-04-28T03:50:35.654Z,95123
2018-04-28T03:53:07.279Z,95125
2018-04-28T03:55:36.036Z,95130
2018-04-28T03:58:21.762Z,95132
2018-04-28T04:01:07.650Z,95131
2018-04-28T04:03:53.504Z,95124
2018-04-28T04:09:32.013Z,95138
2018-04-28T04:12:05.305Z,95145
2018-04-28T04:18:12.322Z,95152
2018-04-28T04:21:04.837Z,95148
2018-04-28T04:33:49.937Z,95167
2018-04-28T04:39:58.790Z,95174
2018-04-28T04:45:40.908Z,95166
2018-04-28T04:51:42.034Z,95182
2018-04-28T04:54:20.799Z,95187
2018-04-28T05:03:24.108Z,95185
2018-04-28T05:06:03.600Z,95183
2018-04-28T05:12:18.566Z,95190
2018-04-28T05:18:26.906Z,95196
2018-04-28T05:21:00.550Z,95195
2018-04-28T05:27:09.629Z,95197
2018-04-28T05:39:55.418Z,95205
2018-04-28T05:42:38.063Z,95212
2018-04-28T05:48:35.080Z,95219
2018-04-28T05:51:32.723Z,95216
2018-04-28T05:54:26.240Z,95219
2018-04-28T05:57:21.715Z,95226
2018-04-28T06:00:07.433Z,95229
2018-04-28T06:02:51.180Z,95220
2018-04-28T06:08:41.458Z,95215
2018-04-28T06:11:21.386Z,95221
2018-04-28T06:17:32.608Z,95229
2018-04-28T06:20:18.647Z,95229
2018-04-28T06:22:48.084Z,95228
2018-04-28T06:25:16.765Z,95227
2018-04-28T06:27:44.948Z,95229
2018-04-28T06:30:13.258Z,95229
2018-04-28T06:32:42.126Z,95230
2018-04-28T06:35:10.252Z,95233
2018-04-28T06:37:38.363Z,95231
2018-04-28T06:40:07.757Z,95230
2018-04-28T06:42:35.862Z,95235
2018-04-28T06:45:04.746Z,95233
2018-04-28T06:47:32.873Z,95229
2018-04-28T06:50:00.978Z,95231
2018-04-28T06:52:29.751Z,95225
2018-04-28T06:54:57.909Z,95225
2018-04-28T06:57:25.995Z,95222
2018-04-28T06:59:54.107Z,95221
2018-04-28T07:02:22.227Z,95222
2018-04-28T07:04:50.394Z,95219
2018-04-28T07:07:18.607Z,95207
2018-04-28T07:09:46.723Z,95210
2018-04-28T07:12:14.819Z,95221
2018-04-28T07:14:42.944Z,95210
2018-04-28T07:17:11.059Z,95210
2018-04-28T07:19:39.142Z,95204
2018-04-28T07:22:07.319Z,95203
2018-04-28T07:24:36.286Z,95202
2018-04-28T07:27:05.065Z,95203
2018-04-28T07:29:33.166Z,95206
2018-04-28T07:32:01.372Z,95203
2018-04-28T07:34:29.531Z,95194
2018-04-28T07:36:57.789Z,95203
2018-04-28T07:39:26.004Z,95201
2018-04-28T07:41:54.222Z,95197
2018-04-28T07:44:22.353Z,95198
2018-04-28T07:46:50.467Z,95202
2018-04-28T07:49:18.653Z,95193
2018-04-28T07:51:47.466Z,95202
2018-04-28T07:54:15.573Z,95197
2018-04-28T07:56:43.767Z,95195
2018-04-28T07:59:11.904Z,95194
2018-04-28T08:01:39.999Z,95190
2018-04-28T08:04:08.116Z,95188
2018-04-28T08:06:36.222Z,95183
2018-04-28T08:09:04.350Z,95184
2018-04-28T08:11:32.465Z,95172
2018-04-28T08:14:00.580Z,95181
2018-04-28T08:16:28.683Z,95174
2018-04-28T08:18:57.840Z,95181
2018-04-28T08:21:25.949Z,95180
2018-04-28T08:23:54.100Z,95179
2018-04-28T08:26:22.275Z,95178
2018-04-28T08:28:51.509Z,95175
2018-04-28T08:31:20.281Z,95173
2018-04-28T08:33:48.438Z,95173
2018-04-28T08:36:16.980Z,95172
2018-04-28T08:38:45.424Z,95173
2018-04-28T08:41:13.519Z,95169
2018-04-28T08:43:41.650Z,95167
2018-04-28T08:46:09.772Z,95168
2018-04-28T08:48:45.890Z,95160
2018-04-28T08:51:14.217Z,95161
2018-04-28T08:53:42.379Z,95159
2018-04-28T08:56:10.472Z,95155
2018-04-28T08:58:38.575Z,95158
2018-04-28T09:01:06.707Z,95160
2018-04-28T09:03:34.879Z,95158
2018-04-28T09:06:03.024Z,95156
2018-04-28T09:08:31.130Z,95149
2018-04-28T09:11:00.072Z,95146
2018-04-28T09:13:28.188Z,95137
2018-04-28T09:15:56.322Z,95138
2018-04-28T09:18:24.477Z,95137
2018-04-28T09:20:52.578Z,95131
2018-04-28T09:23:20.683Z,95127
2018-04-28T09:25:48.795Z,95114
2018-04-28T09:28:16.946Z,95123
2018-04-28T09:30:45.047Z,95119
2018-04-28T09:33:13.239Z,95120
2018-04-28T09:35:41.343Z,95118
2018-04-28T09:38:10.213Z,95114
2018-04-28T09:40:38.315Z,95109
2018-04-28T09:43:07.198Z,95106
2018-04-28T09:45:35.387Z,95103
2018-04-28T09:48:03.615Z,95111
2018-04-28T09:50:31.862Z,95102
2018-04-28T09:53:00.004Z,95101
2018-04-28T09:55:28.140Z,95092
2018-04-28T09:58:06.582Z,95092
2018-04-28T10:00:35.450Z,95084
2018-04-28T10:03:05.288Z,95078
2018-04-28T10:05:34.792Z,95072
2018-04-28T10:08:03.671Z,95065
2018-04-28T10:10:31.755Z,95075
2018-04-28T10:12:59.872Z,95066
2018-04-28T10:15:27.988Z,95058
2018-04-28T10:17:56.124Z,95055
2018-04-28T10:20:24.370Z,95051
2018-04-28T10:22:52.383Z,95057
2018-04-28T10:25:20.478Z,95048
2018-04-28T10:27:48.582Z,95052
2018-04-28T10:30:16.681Z,95048
2018-04-28T10:32:44.822Z,95036
2018-04-28T10:35:13.047Z,95034
2018-04-28T10:37:41.248Z,95033
2018-04-28T10:40:09.496Z,95030
2018-04-28T10:42:37.775Z,95026
2018-04-28T10:45:05.994Z,95012
2018-04-28T10:47:34.373Z,95005
2018-04-28T10:50:02.541Z,95013
2018-04-28T10:52:30.745Z,95009
2018-04-28T10:54:58.925Z,95009
2018-04-28T10:57:27.523Z,94996
2018-04-28T10:59:55.624Z,94999
2018-04-28T11:02:23.821Z,94990
2018-04-28T11:04:52.008Z,94992
2018-04-28T11:07:20.282Z,94984
2018-04-28T11:09:48.410Z,94986
2018-04-28T11:12:16.514Z,94980
2018-04-28T11:14:44.632Z,94974
2018-04-28T11:17:12.726Z,94974
2018-04-28T11:19:40.881Z,94966
2018-04-28T11:22:08.956Z,94973
2018-04-28T11:24:37.935Z,94959
2018-04-28T11:27:06.051Z,94969
2018-04-28T11:29:34.195Z,94951
2018-04-28T11:32:02.327Z,94966
2018-04-28T11:34:30.458Z,94957
2018-04-28T11:36:58.572Z,94965
2018-04-28T11:39:26.681Z,94952
2018-04-28T11:41:54.836Z,94950
2018-04-28T11:44:22.963Z,94934
2018-04-28T11:46:51.472Z,94946
2018-04-28T11:49:19.597Z,94926
2018-04-28T11:51:47.724Z,94934
2018-04-28T11:54:16.035Z,94922
2018-04-28T11:56:44.221Z,94918
2018-04-28T11:59:12.394Z,94915
2018-04-28T12:01:40.495Z,94919
2018-04-28T12:04:08.608Z,94921
2018-04-28T12:06:36.727Z,94916
2018-04-28T12:09:05.651Z,94912
2018-04-28T12:11:33.824Z,94913
2018-04-28T12:14:01.943Z,94907
2018-04-28T12:16:30.076Z,94911
2018-04-28T12:18:58.165Z,94914
2018-04-28T12:21:26.322Z,94905
2018-04-28T12:23:54.435Z,94896
2018-04-28T12:26:22.531Z,94905
2018-04-28T12:28:50.626Z,94891
2018-04-28T12:31:18.720Z,94895
2018-04-28T12:33:46.850Z,94889
2018-04-28T12:36:14.950Z,94892
2018-04-28T12:38:43.068Z,94884
2018-04-28T12:41:11.160Z,94880
2018-04-28T12:43:39.335Z,94883
2018-04-28T12:46:07.384Z,94886
2018-04-28T12:48:35.601Z,94878
2018-04-28T12:51:03.712Z,94878
2018-04-28T12:53:31.865Z,94883
2018-04-28T12:55:59.958Z,94884
2018-04-28T12:58:28.183Z,94877
2018-04-28T13:00:57.074Z,94873
2018-04-28T13:03:25.175Z,94865
2018-04-28T13:05:53.278Z,94865
2018-04-28T13:08:21.453Z,94866
2018-04-28T13:10:49.698Z,94859
2018-04-28T13:13:17.850Z,94859
2018-04-28T13:15:46.726Z,94851
2018-04-28T13:18:14.837Z,94854
2018-04-28T13:20:42.946Z,94840
2018-04-28T13:23:11.054Z,94845
2018-04-28T13:25:39.227Z,94845
2018-04-28T13:28:08.109Z,94840
2018-04-28T13:30:36.207Z,94837
2018-04-28T13:33:04.333Z,94833
2018-04-28T13:35:32.411Z,94836
2018-04-28T13:38:00.507Z,94831
2018-04-28T13:40:28.712Z,94831
2018-04-28T13:42:56.827Z,94834
2018-04-28T13:45:24.943Z,94821
2018-04-28T13:47:53.251Z,94818
2018-04-28T13:50:21.354Z,94820
2018-04-28T13:52:49.488Z,94821
2018-04-28T13:55:17.614Z,94827
2018-04-28T13:57:45.710Z,94806
2018-04-28T14:00:13.811Z,94814
2018-04-28T14:02:41.932Z,94815
2018-04-28T14:05:10.130Z,94808
2018-04-28T14:07:38.347Z,94803
2018-04-28T14:10:06.565Z,94811
2018-04-28T14:12:35.418Z,94805
2018-04-28T14:15:03.544Z,94797
2018-04-28T14:17:31.638Z,94797
2018-04-28T14:19:59.762Z,94790
2018-04-28T14:22:27.871Z,94798
2018-04-28T14:24:56.098Z,94798
2018-04-28T14:27:24.228Z,94789
2018-04-28T14:29:52.359Z,94790
2018-04-28T14:32:21.211Z,94784
2018-04-28T14:34:49.769Z,94778
2018-04-28T14:37:17.902Z,94779
2018-04-28T14:39:46.032Z,94781
2018-04-28T14:42:14.151Z,94791
2018-04-28T14:44:42.275Z,94784
2018-04-28T14:47:10.383Z,94783
2018-04-28T14:49:38.479Z,94779
2018-04-28T14:52:06.585Z,94776
2018-04-28T14:54:34.692Z,94768
2018-04-28T14:57:02.793Z,94771
2018-04-28T14:59:30.901Z,94766
2018-04-28T15:01:59.019Z,94777
2018-04-28T15:04:27.198Z,94768
2018-04-28T15:06:55.329Z,94773
2018-04-28T15:09:23.965Z,94767
2018-04-28T15:11:52.807Z,94771
2018-04-28T15:14:20.908Z,94767
2018-04-28T15:16:49.044Z,94759
2018-04-28T15:19:17.140Z,94763
2018-04-28T15:21:45.241Z,94767
2018-04-28T15:24:13.358Z,94757
2018-04-28T15:26:41.461Z,94765
2018-04-28T15:29:10.024Z,94768
2018-04-28T15:31:38.178Z,94769
2018-04-28T15:34:06.282Z,94763
2018-04-28T15:36:34.374Z,94765
2018-04-28T15:39:02.508Z,94760
2018-04-28T15:41:30.610Z,94760
2018-04-28T15:43:58.816Z,94766
2018-04-28T15:46:26.916Z,94770
2018-04-28T15:48:55.055Z,94760
2018-04-28T15:51:23.172Z,94763
2018-04-28T15:53:51.271Z,94755
2018-04-28T15:56:19.396Z,94763
2018-04-28T15:58:47.589Z,94757
2018-04-28T16:01:15.771Z,94756
2018-04-28T16:03:43.987Z,94754
2018-04-28T16:06:12.859Z,94757
2018-04-28T16:08:40.993Z,94758
2018-04-28T16:11:09.093Z,94754
2018-04-28T16:13:37.217Z,94748
2018-04-28T16:16:05.397Z,94755
2018-04-28T16:18:33.513Z,94752
2018-04-28T16:21:01.615Z,94754
2018-04-28T16:23:29.741Z,94750
2018-04-28T16:25:58.483Z,94745
2018-04-28T16:28:27.494Z,94750
2018-04-28T16:30:55.747Z,94744
2018-04-28T16:33:24.067Z,94747
2018-04-28T16:35:52.301Z,94752
2018-04-28T16:38:20.450Z,94754
2018-04-28T16:40:48.715Z,94749
2018-04-28T16:43:16.939Z,94750
2018-04-28T16:45:45.231Z,94741
2018-04-28T16:48:13.753Z,94753
2018-04-28T16:50:41.886Z,94744
2018-04-28T16:53:09.986Z,94750
2018-04-28T16:55:38.185Z,94742
2018-04-28T16:58:06.863Z,94743
2018-04-28T17:00:34.968Z,94751
2018-04-28T17:03:03.131Z,94750
2018-04-28T17:05:31.231Z,94749
2018-04-28T17:07:59.968Z,94751
2018-04-28T17:10:28.100Z,94749
2018-04-28T17:12:56.183Z,94745
2018-04-28T17:15:25.333Z,94756
2018-04-28T17:17:54.205Z,94737
2018-04-28T17:20:22.333Z,94744
2018-04-28T17:22:50.455Z,94745
2018-04-28T17:25:18.571Z,94747
2018-04-28T17:27:46.697Z,94754
2018-04-28T17:30:14.801Z,94745
2018-04-28T17:32:42.925Z,94754
2018-04-28T17:35:11.262Z,94759
2018-04-28T17:37:39.438Z,94752
2018-04-28T17:40:07.596Z,94751
2018-04-28T17:42:35.721Z,94746
2018-04-28T17:45:03.846Z,94753
2018-04-28T17:47:32.485Z,94758
2018-04-28T17:50:00.641Z,94746
2018-04-28T17:52:28.785Z,94767
2018-04-28T17:54:56.906Z,94758
2018-04-28T17:57:25.118Z,94758
2018-04-28T17:59:53.231Z,94758
2018-04-28T18:02:21.321Z,94768
2018-04-28T18:04:49.460Z,94760
2018-04-28T18:07:17.617Z,94764
2018-04-28T18:09:45.727Z,94767
2018-04-28T18:12:13.902Z,94766
2018-04-28T18:14:42.147Z,94776
2018-04-28T18:17:10.338Z,94769
2018-04-28T18:19:38.556Z,94772
2018-04-28T18:22:06.812Z,94774
2018-04-28T18:24:35.706Z,94776
2018-04-28T18:27:03.806Z,94772
2018-04-28T18:29:31.956Z,94770
2018-04-28T18:32:00.094Z,94772
2018-04-28T18:34:28.184Z,94779
2018-04-28T18:36:56.342Z,94770
2018-04-28T18:39:24.533Z,94777
2018-04-28T18:41:52.667Z,94775
2018-04-28T18:44:20.866Z,94781
2018-04-28T18:46:48.976Z,94778
2018-04-28T18:49:17.427Z,94773
2018-04-28T18:51:45.621Z,94784
2018-04-28T18:54:13.715Z,94785
2018-04-28T18:56:41.835Z,94789
2018-04-28T18:59:09.970Z,94783
2018-04-28T19:01:38.837Z,94784
2018-04-28T19:04:06.947Z,94791
2018-04-28T19:06:35.076Z,94795
2018-04-28T19:09:04.070Z,94795
2018-04-28T19:11:32.171Z,94795
2018-04-28T19:14:00.281Z,94787
2018-04-28T19:16:28.450Z,94789
2018-04-28T19:18:56.627Z,94797
2018-04-28T19:21:24.726Z,94796
2018-04-28T19:23:52.838Z,94797
2018-04-28T19:26:21.012Z,94793
2018-04-28T19:28:49.916Z,94794
2018-04-28T19:31:18.044Z,94803
2018-04-28T19:33:46.184Z,94799
2018-04-28T19:36:14.309Z,94792
2018-04-28T19:38:42.542Z,94797
2018-04-28T19:41:10.796Z,94796
2018-04-28T19:43:38.962Z,94803
2018-04-28T19:46:07.239Z,94799
2018-04-28T19:48:35.453Z,94798
2018-04-28T19:51:03.690Z,94807
2018-04-28T19:53:32.588Z,94793
2018-04-28T19:56:00.686Z,94802
2018-04-28T19:58:28.812Z,94806
2018-04-28T20:00:56.965Z,94801
2018-04-28T20:03:25.095Z,94803
2018-04-28T20:05:53.253Z,94799
2018-04-28T20:08:21.446Z,94797
2018-04-28T20:10:49.673Z,94802
2018-04-28T20:13:17.799Z,94801
2018-04-28T20:15:45.913Z,94797
2018-04-28T20:18:14.793Z,94799
2018-04-28T20:20:43.269Z,94788
2018-04-28T20:23:29.743Z,94803
2018-04-28T20:25:57.865Z,94798
2018-04-28T20:28:28.695Z,94793
2018-04-28T20:30:57.543Z,94795
2018-04-28T20:33:25.645Z,94791
2018-04-28T20:35:53.906Z,94784
2018-04-28T20:38:21.931Z,94784
2018-04-28T20:40:50.056Z,94787
2018-04-28T20:43:18.194Z,94783
2018-04-28T20:45:46.287Z,94794
2018-04-28T20:48:14.407Z,94793
2018-04-28T20:50:42.532Z,94786
2018-04-28T20:53:10.640Z,94781
2018-04-28T20:55:38.750Z,94794
2018-04-28T20:58:06.836Z,94794
2018-04-28T21:00:34.971Z,94799
2018-04-28T21:03:03.104Z,94789
2018-04-28T21:05:31.203Z,94782
2018-04-28T21:07:59.297Z,94785
2018-04-28T21:10:27.449Z,94776
2018-04-28T21:12:56.335Z,94777
2018-04-28T21:15:24.424Z,94786
2018-04-28T21:17:52.542Z,94783
2018-04-28T21:20:20.634Z,94779
2018-04-28T21:22:48.739Z,94782
2018-04-28T21:25:16.839Z,94767
2018-04-28T21:27:44.949Z,94770
2018-04-28T21:30:13.136Z,94772
2018-04-28T21:32:41.276Z,94763
2018-04-28T21:35:09.403Z,94770
2018-04-28T21:37:37.513Z,94763
2018-04-28T21:40:05.620Z,94782
2018-04-28T21:42:33.730Z,94763
2018-04-28T21:45:01.836Z,94759
2018-04-28T21:47:30.707Z,94761
2018-04-28T21:49:58.869Z,94761
2018-04-28T21:52:26.959Z,94768
2018-04-28T21:54:55.048Z,94769
2018-04-28T21:57:23.160Z,94769
2018-04-28T21:59:51.257Z,94767
2018-04-28T22:02:19.678Z,94776
2018-04-28T22:04:47.772Z,94772
2018-04-28T22:07:15.920Z,94769
2018-04-28T22:09:44.546Z,94766
2018-04-28T22:12:12.667Z,94764
2018-04-28T22:14:40.801Z,94763
2018-04-28T22:17:08.889Z,94771
2018-04-28T22:19:39.800Z,94762
2018-04-28T22:22:07.896Z,94759
2018-04-28T22:24:36.019Z,94759
2018-04-28T22:27:04.166Z,94763
2018-04-28T22:29:33.038Z,94769
2018-04-28T22:32:01.246Z,94765
2018-04-28T22:34:29.540Z,94759
2018-04-28T22:36:57.722Z,94759
2018-04-28T22:39:25.998Z,94757
2018-04-28T22:41:54.206Z,94762
2018-04-28T22:44:22.309Z,94772
2018-04-28T22:46:50.416Z,94759
2018-04-28T22:49:18.515Z,94757
2018-04-28T22:51:46.639Z,94759
2018-04-28T22:54:14.744Z,94754
2018-04-28T22:56:42.864Z,94755
2018-04-28T22:59:10.953Z,94751
2018-04-28T23:01:39.076Z,94757
2018-04-28T23:04:07.167Z,94749
2018-04-28T23:06:35.273Z,94746
2018-04-28T23:09:03.379Z,94753
2018-04-28T23:11:31.486Z,94745
2018-04-28T23:13:59.609Z,94743
2018-04-28T23:16:28.461Z,94744
2018-04-28T23:18:56.613Z,94746
2018-04-28T23:21:25.439Z,94738
2018-04-28T23:23:53.617Z,94736
2018-04-28T23:26:21.741Z,94735
2018-04-28T23:28:49.903Z,94738
2018-04-28T23:31:17.997Z,94727
2018-04-28T23:33:46.197Z,94731
2018-04-28T23:36:14.893Z,94726
2018-04-28T23:38:42.995Z,94729
2018-04-28T23:41:11.201Z,94714
2018-04-28T23:43:39.439Z,94721
2018-04-28T23:46:08.392Z,94718
2018-04-28T23:48:36.498Z,94719
2018-04-28T23:51:04.601Z,94724
2018-04-28T23:53:32.745Z,94719
2018-04-28T23:56:01.420Z,94715
2018-04-28T23:58:29.538Z,94718
